createdAt,value
2023-01-07T00:01:58.704Z,14.12
2023-01-07T00:07:02.667Z,14.26
2023-01-07T00:12:06.322Z,14.25
2023-01-07T00:17:08.027Z,14.63
2023-01-07T00:22:09.741Z,14.47
2023-01-07T00:27:11.573Z,14.27
2023-01-07T00:32:15.715Z,14.37
2023-01-07T00:37:36.426Z,13.90
2023-01-07T00:43:17.251Z,13.60
2023-01-07T00:48:25.504Z,13.73
2023-01-07T00:53:30.250Z,14.02
2023-01-07T00:58:32.118Z,14.41
2023-01-07T01:03:34.357Z,15.34
2023-01-07T01:08:38.028Z,13.58
2023-01-07T01:13:40.343Z,12.61
2023-01-07T01:18:43.010Z,14.05
2023-01-07T01:23:44.823Z,14.28
2023-01-07T01:28:46.563Z,14.38
2023-01-07T01:33:49.090Z,14.30
2023-01-07T01:38:51.940Z,14.33
2023-01-07T01:43:53.780Z,14.11
2023-01-07T01:49:24.090Z,13.95
2023-01-07T01:54:27.848Z,13.80
2023-01-07T01:59:34.731Z,13.63
2023-01-07T02:04:38.618Z,13.78
2023-01-07T02:09:40.521Z,13.95
2023-01-07T02:15:24.565Z,14.13
2023-01-07T02:20:39.514Z,12.29
2023-01-07T02:26:06.601Z,11.21
2023-01-07T02:31:37.360Z,12.81
2023-01-07T02:36:53.105Z,13.57
2023-01-07T02:41:59.713Z,13.66
2023-01-07T02:47:14.932Z,11.60
2023-01-07T02:52:26.983Z,10.87
2023-01-07T02:57:41.008Z,12.75
2023-01-07T03:02:59.397Z,13.04
2023-01-07T03:08:10.349Z,10.60
2023-01-07T03:13:29.764Z,10.49
2023-01-07T03:18:40.301Z,11.53
2023-01-07T03:23:48.132Z,11.90
2023-01-07T03:28:53.238Z,12.59
2023-01-07T03:34:03.008Z,11.36
2023-01-07T03:39:07.326Z,9.95
2023-01-07T03:44:10.259Z,11.15
2023-01-07T03:49:12.440Z,11.77
2023-01-07T03:54:14.506Z,11.96
2023-01-07T03:59:16.319Z,11.61
2023-01-07T04:04:18.226Z,11.49
2023-01-07T04:09:21.912Z,11.43
2023-01-07T04:14:25.027Z,11.77
2023-01-07T04:19:26.810Z,12.30
2023-01-07T04:24:28.683Z,12.72
2023-01-07T04:29:31.067Z,10.90
2023-01-07T04:34:32.927Z,11.00
2023-01-07T04:39:35.148Z,12.05
2023-01-07T04:44:37.766Z,12.02
2023-01-07T04:49:40.682Z,9.84
2023-01-07T04:54:42.611Z,9.21
2023-01-07T04:59:45.324Z,11.02
2023-01-07T05:04:47.392Z,12.50
2023-01-07T05:09:50.501Z,13.20
2023-01-07T05:14:53.228Z,11.66
2023-01-07T05:19:55.057Z,10.70
2023-01-07T05:24:57.070Z,11.96
2023-01-07T05:30:00.045Z,12.69
2023-01-07T05:35:02.143Z,11.58
2023-01-07T05:40:05.246Z,10.33
2023-01-07T05:45:07.938Z,11.92
2023-01-07T05:50:09.802Z,12.63
2023-01-07T05:55:11.489Z,12.82
2023-01-07T06:00:14.486Z,11.93
2023-01-07T06:05:16.330Z,9.94
2023-01-07T06:10:18.113Z,9.70
2023-01-07T06:15:19.787Z,11.57
2023-01-07T06:20:21.519Z,11.83
2023-01-07T06:25:23.249Z,9.99
2023-01-07T06:30:25.685Z,9.49
2023-01-07T06:35:27.376Z,11.24
2023-01-07T06:40:29.192Z,11.91
2023-01-07T06:45:30.904Z,12.62
2023-01-07T06:50:32.614Z,11.97
2023-01-07T06:55:34.337Z,9.79
2023-01-07T07:00:35.936Z,9.88
2023-01-07T07:05:37.695Z,11.98
2023-01-07T07:10:39.406Z,11.22
2023-01-07T07:15:41.222Z,9.30
2023-01-07T07:20:42.996Z,9.58
2023-01-07T07:25:44.911Z,12.07
2023-01-07T07:30:48.012Z,11.85
2023-01-07T07:35:50.139Z,10.53
2023-01-07T07:40:51.944Z,12.01
2023-01-07T07:45:53.615Z,11.87
2023-01-07T07:50:55.452Z,10.04
2023-01-07T07:55:57.293Z,10.02
2023-01-07T08:00:59.047Z,12.37
2023-01-07T08:06:00.788Z,13.38
2023-01-07T08:11:04.033Z,13.90
2023-01-07T08:16:06.206Z,14.20
2023-01-07T08:21:07.951Z,14.59
2023-01-07T08:26:09.677Z,14.76
2023-01-07T08:31:11.830Z,14.59
2023-01-07T08:36:29.062Z,14.70
2023-01-07T08:41:30.867Z,14.35
2023-01-07T08:46:32.564Z,14.33
2023-01-07T08:51:34.328Z,14.24
2023-01-07T08:56:36.069Z,14.21
2023-01-07T09:01:37.866Z,14.29
2023-01-07T09:06:39.845Z,14.45
2023-01-07T09:11:41.558Z,14.27
2023-01-07T09:16:43.352Z,14.32
2023-01-07T09:21:45.176Z,14.60
2023-01-07T09:26:46.878Z,15.16
2023-01-07T09:31:48.639Z,15.33
2023-01-07T09:36:50.457Z,15.24
2023-01-07T09:42:04.466Z,15.20
2023-01-07T09:47:08.987Z,15.36
2023-01-07T09:52:30.315Z,15.41
2023-01-07T09:57:54.665Z,15.68
2023-01-07T10:03:49.490Z,16.16
2023-01-07T10:09:02.650Z,14.94
2023-01-07T10:14:25.870Z,14.95
2023-01-07T10:19:39.792Z,15.69
2023-01-07T10:24:47.116Z,16.15
2023-01-07T10:29:55.164Z,14.91
2023-01-07T10:34:58.271Z,15.41
2023-01-07T10:40:12.427Z,15.58
2023-01-07T10:45:19.903Z,14.60
2023-01-07T10:50:48.519Z,16.07
2023-01-07T10:56:02.029Z,15.36
2023-01-07T11:01:05.664Z,14.23
2023-01-07T11:06:14.308Z,15.21
2023-01-07T11:11:20.179Z,15.37
2023-01-07T11:16:28.038Z,14.19
2023-01-07T11:21:42.792Z,15.31
2023-01-07T11:26:46.805Z,15.37
2023-01-07T11:32:00.758Z,14.20
2023-01-07T11:37:04.176Z,15.08
2023-01-07T11:42:25.893Z,15.26
2023-01-07T11:47:27.704Z,14.19
2023-01-07T11:52:29.524Z,15.01
2023-01-07T11:57:31.253Z,14.93
2023-01-07T12:02:33.016Z,13.97
2023-01-07T12:07:35.087Z,14.90
2023-01-07T12:12:40.114Z,14.91
2023-01-07T12:17:45.263Z,13.70
2023-01-07T12:22:58.451Z,14.76
2023-01-07T12:28:12.374Z,15.34
2023-01-07T12:33:29.522Z,13.81
2023-01-07T12:38:53.352Z,14.37
2023-01-07T12:44:21.261Z,14.45
2023-01-07T12:49:42.357Z,14.70
2023-01-07T12:55:04.445Z,13.52
2023-01-07T13:00:26.594Z,13.69
2023-01-07T13:05:37.534Z,14.92
2023-01-07T13:10:42.551Z,14.24
2023-01-07T13:15:44.252Z,13.23
2023-01-07T13:21:04.211Z,14.46
2023-01-07T13:26:14.997Z,14.98
2023-01-07T13:31:42.565Z,13.60
2023-01-07T13:36:58.382Z,12.73
2023-01-07T13:42:18.398Z,13.91
2023-01-07T13:47:24.847Z,15.49
2023-01-07T13:52:30.469Z,15.29
2023-01-07T13:57:32.207Z,13.82
2023-01-07T14:03:03.450Z,13.36
2023-01-07T14:08:05.477Z,15.05
2023-01-07T14:13:25.546Z,15.43
2023-01-07T14:18:32.965Z,14.01
2023-01-07T14:23:44.664Z,13.20
2023-01-07T14:28:55.662Z,12.88
2023-01-07T14:34:05.146Z,14.43
2023-01-07T14:39:36.905Z,14.94
2023-01-07T14:44:38.677Z,13.17
2023-01-07T14:49:57.155Z,12.10
2023-01-07T14:55:04.699Z,12.30
2023-01-07T15:00:20.589Z,13.78
2023-01-07T15:05:45.191Z,13.59
2023-01-07T15:11:09.962Z,11.76
2023-01-07T15:16:12.447Z,10.59
2023-01-07T15:21:36.542Z,10.76
2023-01-07T15:27:06.177Z,13.02
2023-01-07T15:32:22.678Z,12.63
2023-01-07T15:37:24.815Z,10.66
2023-01-07T15:42:27.766Z,10.52
2023-01-07T15:47:41.263Z,12.52
2023-01-07T15:52:52.460Z,12.27
2023-01-07T15:58:00.556Z,10.26
2023-01-07T16:03:04.155Z,10.10
2023-01-07T16:08:06.215Z,11.87
2023-01-07T16:13:20.740Z,11.82
2023-01-07T16:18:22.844Z,9.89
2023-01-07T16:23:32.706Z,9.66
2023-01-07T16:28:41.107Z,11.80
2023-01-07T16:33:44.047Z,12.56
2023-01-07T16:38:49.700Z,11.11
2023-01-07T16:43:54.250Z,9.19
2023-01-07T16:49:28.784Z,9.07
2023-01-07T16:54:34.456Z,11.19
2023-01-07T16:59:42.337Z,12.06
2023-01-07T17:04:44.038Z,10.53
2023-01-07T17:09:45.721Z,8.81
2023-01-07T17:14:48.422Z,8.72
2023-01-07T17:20:01.043Z,10.35
2023-01-07T17:25:15.707Z,11.31
2023-01-07T17:30:20.658Z,11.03
2023-01-07T17:35:24.502Z,8.98
2023-01-07T17:40:26.377Z,8.74
2023-01-07T17:45:29.232Z,10.75
2023-01-07T17:50:40.113Z,11.55
2023-01-07T17:55:42.037Z,11.83
2023-01-07T18:00:43.794Z,9.79
2023-01-07T18:05:45.835Z,9.12
2023-01-07T18:11:07.598Z,11.01
2023-01-07T18:16:14.254Z,9.97
2023-01-07T18:21:16.309Z,8.09
2023-01-07T18:26:18.990Z,8.96
2023-01-07T18:31:21.150Z,10.59
2023-01-07T18:36:23.510Z,11.21
2023-01-07T18:41:25.541Z,11.69
2023-01-07T18:46:27.295Z,10.83
2023-01-07T18:51:29.179Z,8.38
2023-01-07T18:56:31.062Z,8.25
2023-01-07T19:01:34.138Z,10.41
2023-01-07T19:06:36.113Z,11.31
2023-01-07T19:11:38.643Z,11.59
2023-01-07T19:16:40.706Z,9.51
2023-01-07T19:21:43.677Z,8.55
2023-01-07T19:26:46.969Z,10.41
2023-01-07T19:31:48.817Z,11.10
2023-01-07T19:36:50.612Z,8.97
2023-01-07T19:41:52.430Z,8.26
2023-01-07T19:46:54.071Z,9.94
2023-01-07T19:51:55.738Z,10.69
2023-01-07T19:56:57.340Z,9.33
2023-01-07T20:01:59.228Z,7.30
2023-01-07T20:07:01.376Z,7.17
2023-01-07T20:12:03.162Z,9.36
2023-01-07T20:17:05.031Z,10.37
2023-01-07T20:22:06.781Z,10.98
2023-01-07T20:27:08.463Z,9.42
2023-01-07T20:32:10.312Z,8.18
2023-01-07T20:37:12.568Z,10.06
2023-01-07T20:42:14.154Z,10.97
2023-01-07T20:47:16.142Z,11.56
2023-01-07T20:52:18.083Z,12.04
2023-01-07T20:57:19.785Z,10.02
2023-01-07T21:02:22.468Z,8.38
2023-01-07T21:07:24.390Z,8.60
2023-01-07T21:12:26.037Z,11.26
2023-01-07T21:17:27.696Z,11.49
2023-01-07T21:22:29.381Z,8.87
2023-01-07T21:27:31.007Z,8.07
2023-01-07T21:32:33.394Z,10.42
2023-01-07T21:37:35.729Z,11.66
2023-01-07T21:42:37.754Z,11.51
2023-01-07T21:47:39.549Z,8.99
2023-01-07T21:52:41.429Z,8.99
2023-01-07T21:57:43.268Z,11.12
2023-01-07T22:02:45.298Z,12.01
2023-01-07T22:07:47.126Z,10.49
2023-01-07T22:12:50.981Z,8.17
2023-01-07T22:17:52.776Z,7.37
2023-01-07T22:22:54.506Z,10.04
2023-01-07T22:28:00.122Z,11.99
2023-01-07T22:33:03.354Z,12.73
2023-01-07T22:38:05.304Z,10.82
2023-01-07T22:43:09.657Z,8.76
2023-01-07T22:48:17.388Z,7.42
2023-01-07T22:53:19.187Z,6.68
2023-01-07T23:06:13.079Z,11.19
2023-01-07T23:11:33.417Z,12.21
2023-01-07T23:16:36.805Z,11.09
2023-01-07T23:21:43.663Z,9.80
2023-01-07T23:26:47.876Z,11.64
2023-01-07T23:31:49.820Z,11.98
2023-01-07T23:36:51.733Z,9.47
2023-01-07T23:41:53.455Z,9.42
2023-01-07T23:46:55.229Z,11.90
2023-01-07T23:51:57.132Z,12.78
2023-01-07T23:56:58.835Z,10.69
